PROFILE

 METAR AND TAF INFORMATION
ADDS - METARS form results

(1104 UTC 20 August 2018)

 
BGSF 201050Z AUTO 07009KT 9999NDV NCD 09/03 Q1008

 AIRPORT MAP

 RUNWAY INFORMATION
Runway 09 Runway length 9219 ft Runway width 197 ft
Runway elevation 100 ft Runway displaced threshold 0 ft Runway heading 62
Runway 27 Runway length 9219 ft Runway width 197 ft
Runway elevation 165 ft Runway displaced threshold 0 ft Runway heading 242

 AIRPORT FREQUENCIES
Type A/D Name APP/DEP Frequency 126.2 MHZ
Type RDO Name RDO Frequency 121.3 MHZ
Type TWR Name TWR Frequency 118.3 MHZ

 AIRPORT NEAR NAVIGATION AIDS
Type NDB Name Sondre Stromfjord Frequency 382 KHZ